sensor_id;sensor_type;location;lat;lon;timestamp;P1;durP1;ratioP1;P2;durP2;ratioP2
13743;SDS011;6943;52.368;9.966;2024-01-15T00:00:37;9.97;;;7.13;;
13743;SDS011;6943;52.368;9.966;2024-01-15T00:03:03;9.43;;;6.93;;
13743;SDS011;6943;52.368;9.966;2024-01-15T00:05:29;10.37;;;7.13;;
13743;SDS011;6943;52.368;9.966;2024-01-15T00:07:54;10.10;;;7.67;;
13743;SDS011;6943;52.368;9.966;2024-01-15T00:10:20;11.37;;;7.57;;
13743;SDS011;6943;52.368;9.966;2024-01-15T00:12:46;10.87;;;7.43;;
13743;SDS011;6943;52.368;9.966;2024-01-15T00:15:11;10.33;;;7.33;;
13743;SDS011;6943;52.368;9.966;2024-01-15T00:17:37;12.10;;;7.10;;
13743;SDS011;6943;52.368;9.966;2024-01-15T00:20:03;12.37;;;6.33;;
13743;SDS011;6943;52.368;9.966;2024-01-15T00:22:29;9.23;;;6.67;;
13743;SDS011;6943;52.368;9.966;2024-01-15T00:24:55;10.80;;;7.50;;
13743;SDS011;6943;52.368;9.966;2024-01-15T00:27:21;12.27;;;7.00;;
13743;SDS011;6943;52.368;9.966;2024-01-15T00:29:47;9.67;;;5.40;;
13743;SDS011;6943;52.368;9.966;2024-01-15T00:32:13;9.93;;;6.33;;
13743;SDS011;6943;52.368;9.966;2024-01-15T00:34:38;7.70;;;5.17;;
13743;SDS011;6943;52.368;9.966;2024-01-15T00:37:04;8.13;;;5.27;;
13743;SDS011;6943;52.368;9.966;2024-01-15T00:39:31;7.13;;;4.63;;
13743;SDS011;6943;52.368;9.966;2024-01-15T00:41:57;7.77;;;5.47;;
13743;SDS011;6943;52.368;9.966;2024-01-15T00:44:23;8.37;;;5.47;;
13743;SDS011;6943;52.368;9.966;2024-01-15T00:46:48;10.43;;;5.37;;
13743;SDS011;6943;52.368;9.966;2024-01-15T00:49:14;10.97;;;4.83;;
13743;SDS011;6943;52.368;9.966;2024-01-15T00:51:39;8.37;;;4.87;;
13743;SDS011;6943;52.368;9.966;2024-01-15T00:54:05;8.30;;;5.27;;
13743;SDS011;6943;52.368;9.966;2024-01-15T00:56:31;9.00;;;5.10;;
13743;SDS011;6943;52.368;9.966;2024-01-15T00:58:56;11.33;;;5.47;;
13743;SDS011;6943;52.368;9.966;2024-01-15T01:01:22;6.33;;;4.60;;
13743;SDS011;6943;52.368;9.966;2024-01-15T01:03:47;8.23;;;4.77;;
13743;SDS011;6943;52.368;9.966;2024-01-15T01:06:13;10.90;;;5.67;;
13743;SDS011;6943;52.368;9.966;2024-01-15T01:08:39;9.50;;;5.57;;
13743;SDS011;6943;52.368;9.966;2024-01-15T01:11:04;6.70;;;4.47;;
13743;SDS011;6943;52.368;9.966;2024-01-15T01:13:31;7.50;;;5.10;;
13743;SDS011;6943;52.368;9.966;2024-01-15T01:15:57;7.97;;;4.73;;
13743;SDS011;6943;52.368;9.966;2024-01-15T01:18:23;7.33;;;4.57;;
13743;SDS011;6943;52.368;9.966;2024-01-15T01:20:48;9.07;;;4.90;;
13743;SDS011;6943;52.368;9.966;2024-01-15T01:23:14;10.53;;;4.43;;
13743;SDS011;6943;52.368;9.966;2024-01-15T01:25:39;7.77;;;4.30;;
13743;SDS011;6943;52.368;9.966;2024-01-15T01:28:05;9.13;;;4.60;;
13743;SDS011;6943;52.368;9.966;2024-01-15T01:30:30;8.97;;;4.20;;
13743;SDS011;6943;52.368;9.966;2024-01-15T01:32:56;7.73;;;4.37;;
13743;SDS011;6943;52.368;9.966;2024-01-15T01:35:22;9.50;;;4.83;;
13743;SDS011;6943;52.368;9.966;2024-01-15T01:37:48;5.33;;;3.70;;
13743;SDS011;6943;52.368;9.966;2024-01-15T01:40:13;7.50;;;3.77;;
13743;SDS011;6943;52.368;9.966;2024-01-15T01:42:39;7.83;;;3.70;;
13743;SDS011;6943;52.368;9.966;2024-01-15T01:45:04;7.83;;;3.63;;
13743;SDS011;6943;52.368;9.966;2024-01-15T01:47:30;6.93;;;3.13;;
13743;SDS011;6943;52.368;9.966;2024-01-15T01:49:56;5.57;;;2.90;;
13743;SDS011;6943;52.368;9.966;2024-01-15T01:52:22;8.23;;;3.10;;
13743;SDS011;6943;52.368;9.966;2024-01-15T01:54:48;8.10;;;3.53;;
13743;SDS011;6943;52.368;9.966;2024-01-15T01:57:14;6.73;;;2.73;;
13743;SDS011;6943;52.368;9.966;2024-01-15T01:59:41;8.47;;;3.00;;
13743;SDS011;6943;52.368;9.966;2024-01-15T02:02:07;8.50;;;2.87;;
13743;SDS011;6943;52.368;9.966;2024-01-15T02:04:33;6.57;;;2.07;;
13743;SDS011;6943;52.368;9.966;2024-01-15T02:06:59;7.70;;;2.67;;
13743;SDS011;6943;52.368;9.966;2024-01-15T02:09:25;4.77;;;2.30;;
13743;SDS011;6943;52.368;9.966;2024-01-15T02:11:50;6.20;;;2.20;;
13743;SDS011;6943;52.368;9.966;2024-01-15T02:14:16;6.70;;;2.53;;
13743;SDS011;6943;52.368;9.966;2024-01-15T02:16:42;7.17;;;2.53;;
13743;SDS011;6943;52.368;9.966;2024-01-15T02:19:07;7.17;;;2.30;;
13743;SDS011;6943;52.368;9.966;2024-01-15T02:21:40;8.27;;;2.63;;
13743;SDS011;6943;52.368;9.966;2024-01-15T02:24:06;6.73;;;2.77;;
13743;SDS011;6943;52.368;9.966;2024-01-15T02:26:31;7.63;;;2.70;;
13743;SDS011;6943;52.368;9.966;2024-01-15T02:29:00;6.37;;;2.30;;
13743;SDS011;6943;52.368;9.966;2024-01-15T02:31:26;8.37;;;2.23;;
13743;SDS011;6943;52.368;9.966;2024-01-15T02:33:52;9.40;;;2.80;;
13743;SDS011;6943;52.368;9.966;2024-01-15T02:36:17;7.03;;;2.80;;
13743;SDS011;6943;52.368;9.966;2024-01-15T02:38:43;6.33;;;3.30;;
13743;SDS011;6943;52.368;9.966;2024-01-15T02:41:09;5.10;;;2.27;;
13743;SDS011;6943;52.368;9.966;2024-01-15T02:43:34;6.37;;;2.50;;
13743;SDS011;6943;52.368;9.966;2024-01-15T02:45:59;5.43;;;2.57;;
13743;SDS011;6943;52.368;9.966;2024-01-15T02:48:25;5.80;;;2.50;;
13743;SDS011;6943;52.368;9.966;2024-01-15T02:50:50;8.83;;;2.63;;
13743;SDS011;6943;52.368;9.966;2024-01-15T02:53:16;6.10;;;2.07;;
13743;SDS011;6943;52.368;9.966;2024-01-15T02:55:41;9.57;;;2.13;;
13743;SDS011;6943;52.368;9.966;2024-01-15T02:58:07;8.37;;;3.13;;
13743;SDS011;6943;52.368;9.966;2024-01-15T03:00:32;8.47;;;2.10;;
13743;SDS011;6943;52.368;9.966;2024-01-15T03:02:58;5.07;;;1.97;;
13743;SDS011;6943;52.368;9.966;2024-01-15T03:05:23;6.37;;;2.43;;
13743;SDS011;6943;52.368;9.966;2024-01-15T03:07:49;4.77;;;1.70;;
13743;SDS011;6943;52.368;9.966;2024-01-15T03:10:14;6.27;;;1.80;;
13743;SDS011;6943;52.368;9.966;2024-01-15T03:12:40;9.33;;;1.97;;
13743;SDS011;6943;52.368;9.966;2024-01-15T03:15:05;7.00;;;1.90;;
13743;SDS011;6943;52.368;9.966;2024-01-15T03:17:31;7.57;;;2.47;;
13743;SDS011;6943;52.368;9.966;2024-01-15T03:19:57;9.73;;;2.17;;
13743;SDS011;6943;52.368;9.966;2024-01-15T03:22:22;5.30;;;1.97;;
13743;SDS011;6943;52.368;9.966;2024-01-15T03:24:48;6.50;;;1.63;;
13743;SDS011;6943;52.368;9.966;2024-01-15T03:27:13;5.03;;;1.97;;
13743;SDS011;6943;52.368;9.966;2024-01-15T03:29:39;5.70;;;1.40;;
13743;SDS011;6943;52.368;9.966;2024-01-15T03:32:05;6.53;;;1.70;;
13743;SDS011;6943;52.368;9.966;2024-01-15T03:34:31;7.07;;;1.60;;
13743;SDS011;6943;52.368;9.966;2024-01-15T03:36:56;4.80;;;2.00;;
13743;SDS011;6943;52.368;9.966;2024-01-15T03:39:22;6.00;;;1.70;;
13743;SDS011;6943;52.368;9.966;2024-01-15T03:41:47;7.00;;;1.77;;
13743;SDS011;6943;52.368;9.966;2024-01-15T03:44:13;5.20;;;1.43;;
13743;SDS011;6943;52.368;9.966;2024-01-15T03:46:38;4.47;;;1.47;;
13743;SDS011;6943;52.368;9.966;2024-01-15T03:49:04;5.33;;;1.37;;
13743;SDS011;6943;52.368;9.966;2024-01-15T03:51:29;5.90;;;1.40;;
13743;SDS011;6943;52.368;9.966;2024-01-15T03:53:55;5.73;;;1.40;;
13743;SDS011;6943;52.368;9.966;2024-01-15T03:56:20;3.90;;;1.90;;
13743;SDS011;6943;52.368;9.966;2024-01-15T03:58:46;4.97;;;1.30;;
13743;SDS011;6943;52.368;9.966;2024-01-15T04:01:11;7.50;;;1.50;;
13743;SDS011;6943;52.368;9.966;2024-01-15T04:03:37;6.87;;;1.60;;
13743;SDS011;6943;52.368;9.966;2024-01-15T04:06:03;5.37;;;1.60;;
13743;SDS011;6943;52.368;9.966;2024-01-15T04:08:29;7.27;;;2.30;;
13743;SDS011;6943;52.368;9.966;2024-01-15T04:10:54;6.17;;;1.53;;
13743;SDS011;6943;52.368;9.966;2024-01-15T04:13:20;5.27;;;1.63;;
13743;SDS011;6943;52.368;9.966;2024-01-15T04:15:46;4.57;;;1.53;;
13743;SDS011;6943;52.368;9.966;2024-01-15T04:18:11;5.97;;;1.93;;
13743;SDS011;6943;52.368;9.966;2024-01-15T04:20:37;9.20;;;2.07;;
13743;SDS011;6943;52.368;9.966;2024-01-15T04:23:03;3.97;;;1.30;;
13743;SDS011;6943;52.368;9.966;2024-01-15T04:25:29;6.70;;;1.77;;
13743;SDS011;6943;52.368;9.966;2024-01-15T04:27:54;5.17;;;1.77;;
13743;SDS011;6943;52.368;9.966;2024-01-15T04:30:20;8.00;;;1.93;;
13743;SDS011;6943;52.368;9.966;2024-01-15T04:32:45;7.63;;;1.97;;
13743;SDS011;6943;52.368;9.966;2024-01-15T04:35:11;6.67;;;1.87;;
13743;SDS011;6943;52.368;9.966;2024-01-15T04:37:37;5.40;;;1.83;;
13743;SDS011;6943;52.368;9.966;2024-01-15T04:40:04;8.50;;;1.90;;
13743;SDS011;6943;52.368;9.966;2024-01-15T04:42:30;7.47;;;1.80;;
13743;SDS011;6943;52.368;9.966;2024-01-15T04:44:55;6.07;;;1.57;;
13743;SDS011;6943;52.368;9.966;2024-01-15T04:47:21;7.07;;;1.60;;
13743;SDS011;6943;52.368;9.966;2024-01-15T04:49:46;6.60;;;1.77;;
13743;SDS011;6943;52.368;9.966;2024-01-15T04:52:12;8.57;;;2.00;;
13743;SDS011;6943;52.368;9.966;2024-01-15T04:54:38;10.87;;;2.23;;
13743;SDS011;6943;52.368;9.966;2024-01-15T04:57:03;5.60;;;1.40;;
13743;SDS011;6943;52.368;9.966;2024-01-15T04:59:29;5.80;;;2.57;;
13743;SDS011;6943;52.368;9.966;2024-01-15T05:01:54;7.77;;;1.30;;
13743;SDS011;6943;52.368;9.966;2024-01-15T05:04:20;7.10;;;1.87;;
13743;SDS011;6943;52.368;9.966;2024-01-15T05:06:46;7.90;;;1.67;;
13743;SDS011;6943;52.368;9.966;2024-01-15T05:09:11;5.63;;;1.50;;
13743;SDS011;6943;52.368;9.966;2024-01-15T05:11:38;4.50;;;1.30;;
13743;SDS011;6943;52.368;9.966;2024-01-15T05:14:04;5.93;;;1.57;;
13743;SDS011;6943;52.368;9.966;2024-01-15T05:16:29;7.03;;;1.77;;
13743;SDS011;6943;52.368;9.966;2024-01-15T05:18:55;5.80;;;1.70;;
13743;SDS011;6943;52.368;9.966;2024-01-15T05:21:20;4.63;;;1.63;;
13743;SDS011;6943;52.368;9.966;2024-01-15T05:23:45;7.30;;;1.60;;
13743;SDS011;6943;52.368;9.966;2024-01-15T05:26:11;8.23;;;1.77;;
13743;SDS011;6943;52.368;9.966;2024-01-15T05:28:37;5.50;;;1.50;;
13743;SDS011;6943;52.368;9.966;2024-01-15T05:31:02;8.23;;;1.70;;
13743;SDS011;6943;52.368;9.966;2024-01-15T05:33:29;5.33;;;1.70;;
13743;SDS011;6943;52.368;9.966;2024-01-15T05:35:54;5.93;;;1.80;;
13743;SDS011;6943;52.368;9.966;2024-01-15T05:38:20;4.67;;;2.23;;
13743;SDS011;6943;52.368;9.966;2024-01-15T05:40:46;6.50;;;1.50;;
13743;SDS011;6943;52.368;9.966;2024-01-15T05:43:11;10.23;;;1.80;;
13743;SDS011;6943;52.368;9.966;2024-01-15T05:45:38;5.17;;;1.73;;
13743;SDS011;6943;52.368;9.966;2024-01-15T05:48:04;6.87;;;1.50;;
13743;SDS011;6943;52.368;9.966;2024-01-15T05:50:30;6.20;;;1.40;;
13743;SDS011;6943;52.368;9.966;2024-01-15T05:52:55;4.83;;;1.87;;
13743;SDS011;6943;52.368;9.966;2024-01-15T05:55:21;6.63;;;1.30;;
13743;SDS011;6943;52.368;9.966;2024-01-15T05:57:46;3.63;;;2.07;;
13743;SDS011;6943;52.368;9.966;2024-01-15T06:00:12;5.53;;;1.43;;
13743;SDS011;6943;52.368;9.966;2024-01-15T06:02:38;5.93;;;1.43;;
13743;SDS011;6943;52.368;9.966;2024-01-15T06:05:04;6.67;;;1.70;;
13743;SDS011;6943;52.368;9.966;2024-01-15T06:07:30;4.10;;;1.90;;
13743;SDS011;6943;52.368;9.966;2024-01-15T06:09:56;6.03;;;1.73;;
13743;SDS011;6943;52.368;9.966;2024-01-15T06:12:22;4.60;;;1.13;;
13743;SDS011;6943;52.368;9.966;2024-01-15T06:14:48;4.43;;;1.20;;
13743;SDS011;6943;52.368;9.966;2024-01-15T06:17:13;5.90;;;1.47;;
13743;SDS011;6943;52.368;9.966;2024-01-15T06:19:39;7.00;;;1.43;;
13743;SDS011;6943;52.368;9.966;2024-01-15T06:22:04;4.87;;;1.20;;
13743;SDS011;6943;52.368;9.966;2024-01-15T06:24:30;4.87;;;1.43;;
13743;SDS011;6943;52.368;9.966;2024-01-15T06:26:55;4.57;;;1.80;;
13743;SDS011;6943;52.368;9.966;2024-01-15T06:29:21;5.97;;;1.43;;
13743;SDS011;6943;52.368;9.966;2024-01-15T06:31:46;8.90;;;1.63;;
13743;SDS011;6943;52.368;9.966;2024-01-15T06:34:12;4.90;;;1.57;;
13743;SDS011;6943;52.368;9.966;2024-01-15T06:36:37;4.30;;;1.47;;
13743;SDS011;6943;52.368;9.966;2024-01-15T06:39:03;5.40;;;1.67;;
13743;SDS011;6943;52.368;9.966;2024-01-15T06:41:29;6.43;;;1.90;;
13743;SDS011;6943;52.368;9.966;2024-01-15T06:43:54;4.50;;;1.43;;
13743;SDS011;6943;52.368;9.966;2024-01-15T06:46:21;5.13;;;1.60;;
13743;SDS011;6943;52.368;9.966;2024-01-15T06:48:47;4.13;;;1.80;;
13743;SDS011;6943;52.368;9.966;2024-01-15T06:51:12;3.33;;;1.77;;
13743;SDS011;6943;52.368;9.966;2024-01-15T06:53:38;3.73;;;1.50;;
13743;SDS011;6943;52.368;9.966;2024-01-15T06:56:03;6.17;;;1.50;;
13743;SDS011;6943;52.368;9.966;2024-01-15T06:58:30;4.97;;;2.10;;
13743;SDS011;6943;52.368;9.966;2024-01-15T07:00:56;9.20;;;1.90;;
13743;SDS011;6943;52.368;9.966;2024-01-15T07:03:22;5.47;;;1.90;;
13743;SDS011;6943;52.368;9.966;2024-01-15T07:05:48;3.57;;;1.53;;
13743;SDS011;6943;52.368;9.966;2024-01-15T07:08:13;6.70;;;1.43;;
13743;SDS011;6943;52.368;9.966;2024-01-15T07:10:39;10.77;;;2.17;;
13743;SDS011;6943;52.368;9.966;2024-01-15T07:13:04;8.17;;;1.83;;
13743;SDS011;6943;52.368;9.966;2024-01-15T07:15:33;6.87;;;1.80;;
13743;SDS011;6943;52.368;9.966;2024-01-15T07:17:58;3.40;;;1.30;;
13743;SDS011;6943;52.368;9.966;2024-01-15T07:20:25;5.10;;;1.67;;
13743;SDS011;6943;52.368;9.966;2024-01-15T07:22:50;7.00;;;1.77;;
13743;SDS011;6943;52.368;9.966;2024-01-15T07:25:16;6.30;;;1.73;;
13743;SDS011;6943;52.368;9.966;2024-01-15T07:27:42;2.87;;;1.53;;
13743;SDS011;6943;52.368;9.966;2024-01-15T07:30:09;7.40;;;1.93;;
13743;SDS011;6943;52.368;9.966;2024-01-15T07:32:36;5.37;;;1.90;;
13743;SDS011;6943;52.368;9.966;2024-01-15T07:35:02;7.07;;;1.90;;
13743;SDS011;6943;52.368;9.966;2024-01-15T07:37:30;3.83;;;1.60;;
13743;SDS011;6943;52.368;9.966;2024-01-15T07:39:56;8.00;;;2.10;;
13743;SDS011;6943;52.368;9.966;2024-01-15T07:42:21;4.23;;;1.83;;
13743;SDS011;6943;52.368;9.966;2024-01-15T07:44:47;3.43;;;1.50;;
13743;SDS011;6943;52.368;9.966;2024-01-15T07:47:12;3.77;;;1.67;;
13743;SDS011;6943;52.368;9.966;2024-01-15T07:49:38;5.63;;;1.80;;
13743;SDS011;6943;52.368;9.966;2024-01-15T07:52:04;5.90;;;1.97;;
13743;SDS011;6943;52.368;9.966;2024-01-15T07:54:30;4.53;;;1.50;;
13743;SDS011;6943;52.368;9.966;2024-01-15T07:56:56;4.60;;;1.70;;
13743;SDS011;6943;52.368;9.966;2024-01-15T07:59:23;9.23;;;2.33;;
13743;SDS011;6943;52.368;9.966;2024-01-15T08:01:49;3.80;;;1.40;;
13743;SDS011;6943;52.368;9.966;2024-01-15T08:04:16;7.87;;;2.10;;
13743;SDS011;6943;52.368;9.966;2024-01-15T08:06:42;4.70;;;2.07;;
13743;SDS011;6943;52.368;9.966;2024-01-15T08:09:07;4.73;;;1.97;;
13743;SDS011;6943;52.368;9.966;2024-01-15T08:11:33;5.13;;;2.20;;
13743;SDS011;6943;52.368;9.966;2024-01-15T08:13:59;7.37;;;1.87;;
13743;SDS011;6943;52.368;9.966;2024-01-15T08:16:25;3.90;;;1.70;;
13743;SDS011;6943;52.368;9.966;2024-01-15T08:18:50;6.43;;;2.03;;
13743;SDS011;6943;52.368;9.966;2024-01-15T08:21:16;3.53;;;2.00;;
13743;SDS011;6943;52.368;9.966;2024-01-15T08:23:41;5.90;;;2.00;;
13743;SDS011;6943;52.368;9.966;2024-01-15T08:26:07;4.67;;;1.73;;
13743;SDS011;6943;52.368;9.966;2024-01-15T08:28:33;3.67;;;2.03;;
13743;SDS011;6943;52.368;9.966;2024-01-15T08:30:59;7.50;;;1.83;;
13743;SDS011;6943;52.368;9.966;2024-01-15T08:33:24;4.77;;;1.80;;
13743;SDS011;6943;52.368;9.966;2024-01-15T08:35:50;3.57;;;2.17;;
13743;SDS011;6943;52.368;9.966;2024-01-15T08:38:15;5.60;;;2.37;;
13743;SDS011;6943;52.368;9.966;2024-01-15T08:40:41;6.93;;;2.07;;
13743;SDS011;6943;52.368;9.966;2024-01-15T08:43:06;4.17;;;2.03;;
13743;SDS011;6943;52.368;9.966;2024-01-15T08:45:32;4.47;;;2.40;;
13743;SDS011;6943;52.368;9.966;2024-01-15T08:47:58;4.53;;;2.43;;
13743;SDS011;6943;52.368;9.966;2024-01-15T08:50:23;6.27;;;2.40;;
13743;SDS011;6943;52.368;9.966;2024-01-15T08:52:49;3.43;;;2.00;;
13743;SDS011;6943;52.368;9.966;2024-01-15T08:55:14;4.70;;;2.20;;
13743;SDS011;6943;52.368;9.966;2024-01-15T08:57:40;5.87;;;1.93;;
13743;SDS011;6943;52.368;9.966;2024-01-15T09:00:05;4.47;;;1.70;;
13743;SDS011;6943;52.368;9.966;2024-01-15T09:02:33;3.27;;;1.57;;
13743;SDS011;6943;52.368;9.966;2024-01-15T09:04:59;3.80;;;1.63;;
13743;SDS011;6943;52.368;9.966;2024-01-15T09:07:25;4.93;;;1.43;;
13743;SDS011;6943;52.368;9.966;2024-01-15T09:09:51;7.73;;;2.10;;
13743;SDS011;6943;52.368;9.966;2024-01-15T09:12:17;5.03;;;1.70;;
13743;SDS011;6943;52.368;9.966;2024-01-15T09:14:43;2.77;;;1.23;;
13743;SDS011;6943;52.368;9.966;2024-01-15T09:17:09;4.83;;;1.50;;
13743;SDS011;6943;52.368;9.966;2024-01-15T09:19:35;5.07;;;1.60;;
13743;SDS011;6943;52.368;9.966;2024-01-15T09:22:00;6.67;;;1.57;;
13743;SDS011;6943;52.368;9.966;2024-01-15T09:24:26;3.53;;;1.57;;
13743;SDS011;6943;52.368;9.966;2024-01-15T09:26:51;5.60;;;1.83;;
13743;SDS011;6943;52.368;9.966;2024-01-15T09:29:17;5.57;;;1.43;;
13743;SDS011;6943;52.368;9.966;2024-01-15T09:31:43;5.23;;;2.00;;
13743;SDS011;6943;52.368;9.966;2024-01-15T09:34:08;7.47;;;1.97;;
13743;SDS011;6943;52.368;9.966;2024-01-15T09:36:39;6.10;;;1.70;;
13743;SDS011;6943;52.368;9.966;2024-01-15T09:39:06;4.80;;;2.03;;
13743;SDS011;6943;52.368;9.966;2024-01-15T09:41:33;8.93;;;2.03;;
13743;SDS011;6943;52.368;9.966;2024-01-15T09:44:00;8.40;;;1.97;;
13743;SDS011;6943;52.368;9.966;2024-01-15T09:46:25;7.83;;;2.07;;
13743;SDS011;6943;52.368;9.966;2024-01-15T09:48:51;4.43;;;1.50;;
13743;SDS011;6943;52.368;9.966;2024-01-15T09:51:17;4.63;;;1.87;;
13743;SDS011;6943;52.368;9.966;2024-01-15T09:53:42;4.10;;;1.60;;
13743;SDS011;6943;52.368;9.966;2024-01-15T09:56:10;7.87;;;1.80;;
13743;SDS011;6943;52.368;9.966;2024-01-15T09:58:37;7.43;;;1.87;;
13743;SDS011;6943;52.368;9.966;2024-01-15T10:01:03;5.10;;;1.93;;
13743;SDS011;6943;52.368;9.966;2024-01-15T10:03:29;5.33;;;1.70;;
13743;SDS011;6943;52.368;9.966;2024-01-15T10:05:54;4.93;;;1.60;;
13743;SDS011;6943;52.368;9.966;2024-01-15T10:08:21;9.97;;;1.93;;
13743;SDS011;6943;52.368;9.966;2024-01-15T10:10:48;3.13;;;1.30;;
13743;SDS011;6943;52.368;9.966;2024-01-15T10:13:13;3.97;;;1.67;;
13743;SDS011;6943;52.368;9.966;2024-01-15T10:15:40;3.57;;;1.70;;
13743;SDS011;6943;52.368;9.966;2024-01-15T10:18:07;6.27;;;1.93;;
13743;SDS011;6943;52.368;9.966;2024-01-15T10:20:33;6.37;;;1.80;;
13743;SDS011;6943;52.368;9.966;2024-01-15T10:22:59;3.57;;;1.87;;
13743;SDS011;6943;52.368;9.966;2024-01-15T10:25:24;2.20;;;1.43;;
13743;SDS011;6943;52.368;9.966;2024-01-15T10:28:01;1.53;;;1.20;;
13743;SDS011;6943;52.368;9.966;2024-01-15T10:30:27;2.27;;;1.30;;
13743;SDS011;6943;52.368;9.966;2024-01-15T10:32:59;2.80;;;1.70;;
13743;SDS011;6943;52.368;9.966;2024-01-15T10:35:26;3.30;;;1.17;;
13743;SDS011;6943;52.368;9.966;2024-01-15T10:37:56;3.23;;;1.37;;
13743;SDS011;6943;52.368;9.966;2024-01-15T10:40:22;3.27;;;1.50;;
13743;SDS011;6943;52.368;9.966;2024-01-15T10:42:48;4.30;;;1.60;;
13743;SDS011;6943;52.368;9.966;2024-01-15T10:45:13;2.27;;;1.67;;
13743;SDS011;6943;52.368;9.966;2024-01-15T10:47:40;3.90;;;2.00;;
13743;SDS011;6943;52.368;9.966;2024-01-15T10:50:06;1.53;;;1.37;;
13743;SDS011;6943;52.368;9.966;2024-01-15T10:52:33;2.30;;;1.47;;
13743;SDS011;6943;52.368;9.966;2024-01-15T10:55:00;5.47;;;1.83;;
13743;SDS011;6943;52.368;9.966;2024-01-15T10:57:26;5.10;;;1.80;;
13743;SDS011;6943;52.368;9.966;2024-01-15T10:59:52;3.17;;;1.80;;
13743;SDS011;6943;52.368;9.966;2024-01-15T11:02:17;4.57;;;1.93;;
13743;SDS011;6943;52.368;9.966;2024-01-15T11:04:43;4.87;;;1.50;;
13743;SDS011;6943;52.368;9.966;2024-01-15T11:07:08;3.23;;;1.53;;
13743;SDS011;6943;52.368;9.966;2024-01-15T11:09:36;3.77;;;1.37;;
13743;SDS011;6943;52.368;9.966;2024-01-15T11:12:12;5.00;;;2.17;;
13743;SDS011;6943;52.368;9.966;2024-01-15T11:17:04;9.97;;;1.73;;
13743;SDS011;6943;52.368;9.966;2024-01-15T11:19:43;2.80;;;1.03;;
13743;SDS011;6943;52.368;9.966;2024-01-15T11:22:34;3.87;;;1.50;;
13743;SDS011;6943;52.368;9.966;2024-01-15T11:24:56;3.30;;;1.40;;
13743;SDS011;6943;52.368;9.966;2024-01-15T11:27:41;4.33;;;1.70;;
13743;SDS011;6943;52.368;9.966;2024-01-15T11:30:18;4.43;;;1.60;;
13743;SDS011;6943;52.368;9.966;2024-01-15T11:32:47;5.43;;;1.70;;
13743;SDS011;6943;52.368;9.966;2024-01-15T11:35:13;4.70;;;1.70;;
13743;SDS011;6943;52.368;9.966;2024-01-15T11:42:57;4.57;;;1.27;;
13743;SDS011;6943;52.368;9.966;2024-01-15T11:45:23;5.47;;;1.40;;
13743;SDS011;6943;52.368;9.966;2024-01-15T11:50:26;5.63;;;1.43;;
13743;SDS011;6943;52.368;9.966;2024-01-15T11:53:02;6.90;;;1.67;;
13743;SDS011;6943;52.368;9.966;2024-01-15T11:55:35;4.20;;;1.23;;
13743;SDS011;6943;52.368;9.966;2024-01-15T11:58:07;3.27;;;1.70;;
13743;SDS011;6943;52.368;9.966;2024-01-15T12:00:34;3.87;;;1.53;;
13743;SDS011;6943;52.368;9.966;2024-01-15T12:03:04;7.67;;;1.93;;
13743;SDS011;6943;52.368;9.966;2024-01-15T12:05:30;4.53;;;1.77;;
13743;SDS011;6943;52.368;9.966;2024-01-15T12:07:55;5.70;;;2.03;;
13743;SDS011;6943;52.368;9.966;2024-01-15T12:10:21;4.93;;;1.80;;
13743;SDS011;6943;52.368;9.966;2024-01-15T12:12:59;6.60;;;1.87;;
13743;SDS011;6943;52.368;9.966;2024-01-15T12:15:29;4.03;;;1.80;;
13743;SDS011;6943;52.368;9.966;2024-01-15T12:17:56;8.17;;;2.00;;
13743;SDS011;6943;52.368;9.966;2024-01-15T12:20:23;6.47;;;1.77;;
13743;SDS011;6943;52.368;9.966;2024-01-15T12:22:51;3.97;;;1.53;;
13743;SDS011;6943;52.368;9.966;2024-01-15T12:25:17;5.37;;;2.30;;
13743;SDS011;6943;52.368;9.966;2024-01-15T12:27:43;5.70;;;1.83;;
13743;SDS011;6943;52.368;9.966;2024-01-15T12:30:12;7.70;;;1.80;;
13743;SDS011;6943;52.368;9.966;2024-01-15T12:32:39;5.03;;;1.67;;
13743;SDS011;6943;52.368;9.966;2024-01-15T12:35:06;2.13;;;1.77;;
13743;SDS011;6943;52.368;9.966;2024-01-15T12:37:32;6.20;;;1.83;;
13743;SDS011;6943;52.368;9.966;2024-01-15T12:40:11;5.13;;;2.20;;
13743;SDS011;6943;52.368;9.966;2024-01-15T12:42:38;4.47;;;2.10;;
13743;SDS011;6943;52.368;9.966;2024-01-15T12:45:05;3.23;;;1.60;;
13743;SDS011;6943;52.368;9.966;2024-01-15T12:47:31;7.17;;;1.87;;
13743;SDS011;6943;52.368;9.966;2024-01-15T12:49:57;7.33;;;2.20;;
13743;SDS011;6943;52.368;9.966;2024-01-15T12:52:26;5.20;;;1.67;;
13743;SDS011;6943;52.368;9.966;2024-01-15T12:54:54;8.00;;;1.70;;
13743;SDS011;6943;52.368;9.966;2024-01-15T12:57:21;2.50;;;1.40;;
13743;SDS011;6943;52.368;9.966;2024-01-15T12:59:46;3.77;;;1.50;;
13743;SDS011;6943;52.368;9.966;2024-01-15T13:02:15;4.10;;;1.43;;
13743;SDS011;6943;52.368;9.966;2024-01-15T13:04:41;7.60;;;1.90;;
13743;SDS011;6943;52.368;9.966;2024-01-15T13:07:07;3.73;;;1.60;;
13743;SDS011;6943;52.368;9.966;2024-01-15T13:09:33;5.30;;;1.80;;
13743;SDS011;6943;52.368;9.966;2024-01-15T13:12:00;7.27;;;1.90;;
13743;SDS011;6943;52.368;9.966;2024-01-15T13:14:26;3.67;;;1.53;;
13743;SDS011;6943;52.368;9.966;2024-01-15T13:16:52;8.17;;;1.77;;
13743;SDS011;6943;52.368;9.966;2024-01-15T13:19:18;9.40;;;1.80;;
13743;SDS011;6943;52.368;9.966;2024-01-15T13:21:44;3.43;;;1.40;;
13743;SDS011;6943;52.368;9.966;2024-01-15T13:24:10;6.30;;;1.73;;
13743;SDS011;6943;52.368;9.966;2024-01-15T13:26:36;7.00;;;1.80;;
13743;SDS011;6943;52.368;9.966;2024-01-15T13:29:04;3.47;;;1.63;;
13743;SDS011;6943;52.368;9.966;2024-01-15T13:31:30;7.37;;;1.63;;
13743;SDS011;6943;52.368;9.966;2024-01-15T13:33:56;7.13;;;1.80;;
13743;SDS011;6943;52.368;9.966;2024-01-15T13:36:22;4.70;;;1.60;;
13743;SDS011;6943;52.368;9.966;2024-01-15T13:38:49;3.77;;;1.97;;
13743;SDS011;6943;52.368;9.966;2024-01-15T13:41:15;3.67;;;1.40;;
13743;SDS011;6943;52.368;9.966;2024-01-15T13:43:41;4.03;;;1.70;;
13743;SDS011;6943;52.368;9.966;2024-01-15T13:46:07;4.17;;;1.27;;
13743;SDS011;6943;52.368;9.966;2024-01-15T13:48:32;5.53;;;1.53;;
13743;SDS011;6943;52.368;9.966;2024-01-15T13:50:58;4.27;;;1.63;;
13743;SDS011;6943;52.368;9.966;2024-01-15T13:53:24;2.30;;;1.50;;
13743;SDS011;6943;52.368;9.966;2024-01-15T13:55:50;5.43;;;1.40;;
13743;SDS011;6943;52.368;9.966;2024-01-15T13:58:15;4.50;;;1.80;;
13743;SDS011;6943;52.368;9.966;2024-01-15T14:00:43;5.43;;;1.67;;
13743;SDS011;6943;52.368;9.966;2024-01-15T14:03:08;3.33;;;1.60;;
13743;SDS011;6943;52.368;9.966;2024-01-15T14:05:34;5.10;;;1.67;;
13743;SDS011;6943;52.368;9.966;2024-01-15T14:08:00;5.93;;;1.60;;
13743;SDS011;6943;52.368;9.966;2024-01-15T14:10:25;2.80;;;1.43;;
13743;SDS011;6943;52.368;9.966;2024-01-15T14:12:51;4.83;;;1.63;;
13743;SDS011;6943;52.368;9.966;2024-01-15T14:15:16;4.43;;;1.27;;
13743;SDS011;6943;52.368;9.966;2024-01-15T14:17:42;6.20;;;1.67;;
13743;SDS011;6943;52.368;9.966;2024-01-15T14:20:08;7.97;;;1.57;;
13743;SDS011;6943;52.368;9.966;2024-01-15T14:22:34;7.97;;;1.93;;
13743;SDS011;6943;52.368;9.966;2024-01-15T14:25:00;3.37;;;1.57;;
13743;SDS011;6943;52.368;9.966;2024-01-15T14:27:25;8.43;;;3.53;;
13743;SDS011;6943;52.368;9.966;2024-01-15T14:29:51;4.10;;;2.23;;
13743;SDS011;6943;52.368;9.966;2024-01-15T14:32:16;3.73;;;1.43;;
13743;SDS011;6943;52.368;9.966;2024-01-15T14:34:42;6.10;;;2.00;;
13743;SDS011;6943;52.368;9.966;2024-01-15T14:37:08;4.60;;;1.70;;
13743;SDS011;6943;52.368;9.966;2024-01-15T14:39:33;3.30;;;1.57;;
13743;SDS011;6943;52.368;9.966;2024-01-15T14:41:59;4.93;;;1.83;;
13743;SDS011;6943;52.368;9.966;2024-01-15T14:44:25;4.73;;;2.00;;
13743;SDS011;6943;52.368;9.966;2024-01-15T14:46:51;3.80;;;1.70;;
13743;SDS011;6943;52.368;9.966;2024-01-15T14:49:16;4.07;;;1.83;;
13743;SDS011;6943;52.368;9.966;2024-01-15T14:51:43;2.63;;;1.80;;
13743;SDS011;6943;52.368;9.966;2024-01-15T14:54:09;6.73;;;1.90;;
13743;SDS011;6943;52.368;9.966;2024-01-15T14:56:35;4.73;;;2.00;;
13743;SDS011;6943;52.368;9.966;2024-01-15T14:59:00;2.73;;;1.80;;
13743;SDS011;6943;52.368;9.966;2024-01-15T15:01:26;6.17;;;2.03;;
13743;SDS011;6943;52.368;9.966;2024-01-15T15:03:51;4.10;;;1.67;;